createdAt,value
2023-03-06T00:01:54.819Z,2.96
2023-03-06T00:04:21.501Z,2.97
2023-03-06T00:06:48.277Z,2.99
2023-03-06T00:09:15.144Z,3.02
2023-03-06T00:11:41.628Z,3.03
2023-03-06T00:14:08.163Z,3.05
2023-03-06T00:16:34.714Z,3.09
2023-03-06T00:19:01.246Z,3.10
2023-03-06T00:21:27.944Z,3.13
2023-03-06T00:23:54.546Z,3.13
2023-03-06T00:26:21.015Z,3.16
2023-03-06T00:28:47.507Z,3.18
2023-03-06T00:31:14.186Z,3.18
2023-03-06T00:33:40.748Z,3.24
2023-03-06T00:36:07.576Z,3.24
2023-03-06T00:38:35.650Z,3.25
2023-03-06T00:41:13.278Z,3.27
2023-03-06T00:43:40.191Z,3.29
2023-03-06T00:46:07.214Z,3.33
2023-03-06T00:48:34.361Z,3.34
2023-03-06T00:51:01.252Z,3.37
2023-03-06T00:53:27.799Z,3.38
2023-03-06T00:55:54.320Z,3.43
2023-03-06T00:58:20.917Z,3.42
2023-03-06T01:00:49.842Z,3.43
2023-03-06T01:03:16.615Z,3.44
2023-03-06T01:05:43.166Z,3.45
2023-03-06T01:08:09.968Z,3.47
2023-03-06T01:10:40.615Z,3.50
2023-03-06T01:13:07.308Z,3.51
2023-03-06T01:15:34.276Z,3.55
2023-03-06T01:18:00.984Z,3.56
2023-03-06T01:20:28.006Z,3.57
2023-03-06T01:22:56.563Z,3.58
2023-03-06T01:25:24.770Z,3.60
2023-03-06T01:27:51.656Z,3.61
2023-03-06T01:30:18.275Z,3.62
2023-03-06T01:32:45.057Z,3.63
2023-03-06T01:35:12.944Z,3.64
2023-03-06T01:37:40.221Z,3.64
2023-03-06T01:40:12.044Z,3.63
2023-03-06T01:42:39.046Z,3.66
2023-03-06T01:45:11.290Z,3.67
2023-03-06T01:47:37.858Z,3.67
2023-03-06T01:50:08.655Z,3.68
2023-03-06T01:52:45.467Z,3.68
2023-03-06T01:55:18.322Z,3.70
2023-03-06T01:57:48.599Z,3.69
2023-03-06T02:00:18.601Z,3.69
2023-03-06T02:02:50.073Z,3.70
2023-03-06T02:05:16.759Z,3.72
2023-03-06T02:07:45.117Z,3.73
2023-03-06T02:10:12.670Z,3.74
2023-03-06T02:12:43.735Z,3.73
2023-03-06T02:15:15.871Z,3.75
2023-03-06T02:17:44.586Z,3.76
2023-03-06T02:20:41.027Z,3.77
2023-03-06T02:23:10.505Z,3.77
2023-03-06T02:25:44.262Z,3.78
2023-03-06T02:28:17.634Z,3.79
2023-03-06T02:30:46.968Z,3.79
2023-03-06T02:33:14.769Z,3.81
2023-03-06T02:35:46.706Z,3.81
2023-03-06T02:38:19.970Z,3.81
2023-03-06T02:40:49.732Z,3.82
2023-03-06T02:43:21.587Z,3.82
2023-03-06T02:45:50.915Z,3.84
2023-03-06T02:48:20.138Z,3.84
2023-03-06T02:50:47.990Z,3.86
2023-03-06T02:53:16.735Z,3.86
2023-03-06T02:55:43.272Z,3.87
2023-03-06T02:58:10.095Z,3.88
2023-03-06T03:00:36.804Z,3.89
2023-03-06T03:03:03.976Z,3.89
2023-03-06T03:05:30.837Z,3.91
2023-03-06T03:07:57.347Z,3.90
2023-03-06T03:10:24.173Z,3.91
2023-03-06T03:12:51.181Z,3.91
2023-03-06T03:15:18.095Z,3.94
2023-03-06T03:17:44.696Z,3.93
2023-03-06T03:20:14.832Z,3.95
2023-03-06T03:22:41.393Z,3.96
2023-03-06T03:25:08.461Z,3.96
2023-03-06T03:27:34.985Z,3.99
2023-03-06T03:30:01.509Z,3.99
2023-03-06T03:32:28.053Z,3.99
2023-03-06T03:34:57.584Z,3.99
2023-03-06T03:37:24.113Z,4.03
2023-03-06T03:39:50.641Z,4.01
2023-03-06T03:42:17.172Z,4.02
2023-03-06T03:44:43.764Z,4.03
2023-03-06T03:47:10.276Z,4.03
2023-03-06T03:49:36.884Z,4.04
2023-03-06T03:52:03.522Z,4.05
2023-03-06T03:54:30.149Z,4.06
2023-03-06T03:56:57.032Z,4.06
2023-03-06T03:59:23.559Z,4.07
2023-03-06T04:01:50.084Z,4.09
2023-03-06T04:04:16.773Z,4.10
2023-03-06T04:06:44.496Z,4.10
2023-03-06T04:09:11.002Z,4.10
2023-03-06T04:11:37.605Z,4.12
2023-03-06T04:14:04.296Z,4.11
2023-03-06T04:16:30.895Z,4.13
2023-03-06T04:18:57.475Z,4.14
2023-03-06T04:21:24.076Z,4.15
2023-03-06T04:23:50.627Z,4.15
2023-03-06T04:26:17.147Z,4.16
2023-03-06T04:28:43.784Z,4.17
2023-03-06T04:31:12.728Z,4.18
2023-03-06T04:33:39.882Z,4.19
2023-03-06T04:36:06.591Z,4.20
2023-03-06T04:38:33.211Z,4.21
2023-03-06T04:40:59.777Z,4.21
2023-03-06T04:43:26.583Z,4.22
2023-03-06T04:45:53.145Z,4.22
2023-03-06T04:48:19.866Z,4.24
2023-03-06T04:50:46.499Z,4.25
2023-03-06T04:53:14.576Z,4.25
2023-03-06T04:55:41.112Z,4.27
2023-03-06T04:58:07.668Z,4.27
2023-03-06T05:00:34.275Z,4.27
2023-03-06T05:03:01.373Z,4.28
2023-03-06T05:05:29.031Z,4.29
2023-03-06T05:07:55.759Z,4.30
2023-03-06T05:10:23.027Z,4.32
2023-03-06T05:12:49.624Z,4.31
2023-03-06T05:15:16.354Z,4.32
2023-03-06T05:17:43.105Z,4.32
2023-03-06T05:20:11.653Z,4.34
2023-03-06T05:22:38.520Z,4.34
2023-03-06T05:25:05.755Z,4.36
2023-03-06T05:27:32.544Z,4.37
2023-03-06T05:29:59.288Z,4.38
2023-03-06T05:32:26.015Z,4.38
2023-03-06T05:34:52.613Z,4.38
2023-03-06T05:37:19.127Z,4.40
2023-03-06T05:39:45.922Z,4.40
2023-03-06T05:42:12.514Z,4.42
2023-03-06T05:44:39.107Z,4.42
2023-03-06T05:47:05.765Z,4.42
2023-03-06T05:49:34.789Z,4.43
2023-03-06T05:52:04.064Z,4.44
2023-03-06T05:54:35.534Z,4.44
2023-03-06T05:57:02.852Z,4.45
2023-03-06T05:59:29.360Z,4.47
2023-03-06T06:01:56.598Z,4.47
2023-03-06T06:04:24.846Z,4.48
2023-03-06T06:06:53.912Z,4.47
2023-03-06T06:09:22.459Z,4.48
2023-03-06T06:11:53.603Z,4.50
2023-03-06T06:14:20.457Z,4.50
2023-03-06T06:16:47.317Z,4.49
2023-03-06T06:19:20.346Z,4.50
2023-03-06T06:21:48.796Z,4.50
2023-03-06T06:24:17.828Z,4.51
2023-03-06T06:26:45.039Z,4.51
2023-03-06T06:29:13.022Z,4.52
2023-03-06T06:31:39.866Z,4.52
2023-03-06T06:34:07.698Z,4.53
2023-03-06T06:36:34.352Z,4.53
2023-03-06T06:39:00.906Z,4.54
2023-03-06T06:41:42.644Z,4.54
2023-03-06T06:44:15.483Z,4.56
2023-03-06T06:49:32.714Z,4.58
2023-03-06T06:51:59.519Z,4.58
2023-03-06T06:54:26.422Z,4.58
2023-03-06T06:56:53.565Z,4.60
2023-03-06T06:59:23.548Z,4.61
2023-03-06T07:01:53.540Z,4.61
2023-03-06T07:04:20.329Z,4.61
2023-03-06T07:06:46.943Z,4.62
2023-03-06T07:09:13.975Z,4.63
2023-03-06T07:11:41.686Z,4.63
2023-03-06T07:14:08.742Z,4.66
2023-03-06T07:16:35.437Z,4.67
2023-03-06T07:19:02.420Z,4.68
2023-03-06T07:21:29.167Z,4.69
2023-03-06T07:23:57.513Z,4.69
2023-03-06T07:26:27.819Z,4.68
2023-03-06T07:28:55.071Z,4.70
2023-03-06T07:31:24.658Z,4.71
2023-03-06T07:33:52.150Z,4.72
2023-03-06T07:36:18.855Z,4.73
2023-03-06T07:38:45.757Z,4.73
2023-03-06T07:41:13.847Z,4.74
2023-03-06T07:43:41.519Z,4.75
2023-03-06T07:46:08.908Z,4.75
2023-03-06T07:48:36.711Z,4.78
2023-03-06T07:51:12.514Z,4.79
2023-03-06T07:53:39.016Z,4.83
2023-03-06T07:56:09.358Z,4.84
2023-03-06T07:58:37.793Z,4.87
2023-03-06T08:01:05.887Z,4.89
2023-03-06T08:03:32.990Z,4.91
2023-03-06T08:06:17.741Z,4.95
2023-03-06T08:08:45.733Z,4.97
2023-03-06T08:11:14.138Z,5.00
2023-03-06T08:13:41.340Z,5.02
2023-03-06T08:16:08.663Z,5.07
2023-03-06T08:18:35.598Z,5.08
2023-03-06T08:21:11.251Z,5.12
2023-03-06T08:23:38.100Z,5.15
2023-03-06T08:26:07.615Z,5.18
2023-03-06T08:28:34.661Z,5.24
2023-03-06T08:31:28.395Z,5.26
2023-03-06T08:33:56.896Z,5.31
2023-03-06T08:36:24.030Z,5.34
2023-03-06T08:38:51.077Z,5.38
2023-03-06T08:41:18.183Z,5.42
2023-03-06T08:43:44.843Z,5.46
2023-03-06T08:46:11.994Z,5.50
2023-03-06T08:48:38.894Z,5.54
2023-03-06T08:51:06.094Z,5.57
2023-03-06T08:53:42.560Z,5.60
2023-03-06T08:56:26.017Z,5.64
2023-03-06T08:58:53.577Z,5.68
2023-03-06T09:01:26.445Z,5.71
2023-03-06T09:03:58.348Z,5.74
2023-03-06T09:06:26.363Z,5.79
2023-03-06T09:08:54.240Z,5.84
2023-03-06T09:11:23.570Z,5.88
2023-03-06T09:13:50.281Z,5.92
2023-03-06T09:16:16.910Z,5.96
2023-03-06T09:18:43.544Z,5.99
2023-03-06T09:21:10.665Z,6.04
2023-03-06T09:23:39.483Z,6.10
2023-03-06T09:26:07.488Z,6.13
2023-03-06T09:28:39.238Z,6.19
2023-03-06T09:31:13.916Z,6.23
2023-03-06T09:33:40.614Z,6.29
2023-03-06T09:36:08.489Z,6.34
2023-03-06T09:38:35.144Z,6.40
2023-03-06T09:41:28.382Z,6.45
2023-03-06T09:44:06.154Z,6.51
2023-03-06T09:46:50.577Z,6.59
2023-03-06T09:49:38.310Z,6.68
2023-03-06T09:52:40.340Z,6.73
2023-03-06T09:55:28.944Z,6.79
2023-03-06T09:58:20.563Z,6.85
2023-03-06T10:00:59.678Z,6.91
2023-03-06T10:03:32.305Z,6.97
2023-03-06T10:06:08.536Z,7.01
2023-03-06T10:08:35.724Z,7.06
2023-03-06T10:11:14.812Z,7.10
2023-03-06T10:13:45.889Z,7.13
2023-03-06T10:16:23.728Z,7.15
2023-03-06T10:18:50.750Z,7.19
2023-03-06T10:21:37.547Z,7.22
2023-03-06T10:24:22.733Z,7.25
2023-03-06T10:26:59.346Z,7.27
2023-03-06T10:29:50.162Z,7.29
2023-03-06T10:32:46.175Z,7.33
2023-03-06T10:35:21.714Z,7.35
2023-03-06T10:37:49.222Z,7.36
2023-03-06T10:40:21.592Z,7.39
2023-03-06T10:42:49.514Z,7.42
2023-03-06T10:45:18.787Z,7.43
2023-03-06T10:47:46.129Z,7.46
2023-03-06T10:50:21.747Z,7.48
2023-03-06T10:53:01.236Z,7.51
2023-03-06T10:55:33.702Z,7.54
2023-03-06T10:58:27.570Z,7.58
2023-03-06T11:01:21.890Z,7.62
2023-03-06T11:03:48.814Z,7.66
2023-03-06T11:06:31.949Z,7.70
2023-03-06T11:09:16.924Z,7.74
2023-03-06T11:11:43.425Z,7.80
2023-03-06T11:14:23.167Z,7.84
2023-03-06T11:16:55.226Z,7.91
2023-03-06T11:19:27.982Z,7.99
2023-03-06T11:22:05.711Z,8.06
2023-03-06T11:24:47.486Z,8.15
2023-03-06T11:27:16.965Z,8.22
2023-03-06T11:29:51.509Z,8.27
2023-03-06T11:32:24.749Z,8.33
2023-03-06T11:34:57.590Z,8.37
2023-03-06T11:37:45.972Z,8.42
2023-03-06T11:40:31.792Z,8.47
2023-03-06T11:43:12.600Z,8.50
2023-03-06T11:45:51.659Z,8.53
2023-03-06T11:48:24.757Z,8.53
2023-03-06T11:50:53.829Z,8.51
2023-03-06T11:53:23.401Z,8.50
2023-03-06T11:55:59.211Z,8.47
2023-03-06T11:58:53.325Z,8.47
2023-03-06T12:01:23.631Z,8.45
2023-03-06T12:04:11.078Z,8.47
2023-03-06T12:06:56.484Z,8.49
2023-03-06T12:09:58.637Z,8.53
2023-03-06T12:12:29.021Z,8.60
2023-03-06T12:14:58.400Z,8.69
2023-03-06T12:17:24.872Z,8.77
2023-03-06T12:20:14.482Z,8.83
2023-03-06T12:23:14.494Z,8.92
2023-03-06T12:25:50.637Z,9.01
2023-03-06T12:28:38.560Z,9.08
2023-03-06T12:31:08.190Z,9.15
2023-03-06T12:34:01.662Z,9.22
2023-03-06T12:36:49.630Z,9.29
2023-03-06T12:39:22.167Z,9.33
2023-03-06T12:41:57.740Z,9.40
2023-03-06T12:44:38.811Z,9.43
2023-03-06T12:47:10.465Z,9.48
2023-03-06T12:49:41.609Z,9.52
2023-03-06T12:52:18.556Z,9.55
2023-03-06T12:54:45.668Z,9.60
2023-03-06T12:57:14.968Z,9.63
2023-03-06T12:59:47.865Z,9.66
2023-03-06T13:02:17.426Z,9.69
2023-03-06T13:05:21.592Z,9.71
2023-03-06T13:07:54.000Z,9.72
2023-03-06T13:10:35.878Z,9.73
2023-03-06T13:13:39.775Z,9.75
2023-03-06T13:16:18.551Z,9.76
2023-03-06T13:18:50.876Z,9.76
2023-03-06T13:22:03.167Z,9.77
2023-03-06T13:24:37.670Z,9.66
2023-03-06T13:27:07.379Z,9.67
2023-03-06T13:29:36.941Z,9.66
2023-03-06T13:32:03.516Z,9.67
2023-03-06T13:34:47.037Z,9.72
2023-03-06T13:37:13.497Z,9.73
2023-03-06T13:39:59.105Z,9.74
2023-03-06T13:42:36.733Z,9.76
2023-03-06T13:45:22.918Z,9.79
2023-03-06T13:48:10.971Z,9.82
2023-03-06T13:50:49.577Z,9.85
2023-03-06T13:53:29.698Z,9.87
2023-03-06T13:56:18.101Z,9.89
2023-03-06T13:59:09.474Z,9.89
2023-03-06T14:01:47.984Z,9.90
2023-03-06T14:04:33.211Z,9.89
2023-03-06T14:07:11.792Z,9.82
2023-03-06T14:09:58.011Z,9.74
2023-03-06T14:12:28.889Z,9.63
2023-03-06T14:14:58.006Z,9.53
2023-03-06T14:17:35.110Z,9.41
2023-03-06T14:20:14.459Z,9.26
2023-03-06T14:22:42.340Z,9.10
2023-03-06T14:25:26.837Z,8.97
2023-03-06T14:27:58.221Z,8.95
2023-03-06T14:30:27.070Z,8.90
2023-03-06T14:32:55.168Z,8.85
2023-03-06T14:35:32.350Z,8.79
2023-03-06T14:38:02.779Z,8.79
2023-03-06T14:40:35.519Z,8.79
2023-03-06T14:43:24.016Z,8.77
2023-03-06T14:45:51.468Z,8.80
2023-03-06T14:48:18.676Z,8.80
2023-03-06T14:50:54.124Z,8.80
2023-03-06T14:53:33.474Z,8.80
2023-03-06T14:56:06.356Z,8.80
2023-03-06T14:58:35.781Z,8.82
2023-03-06T15:01:06.630Z,8.81
2023-03-06T15:03:46.888Z,8.81
2023-03-06T15:06:41.914Z,8.78
2023-03-06T15:09:17.621Z,8.76
2023-03-06T15:11:51.072Z,8.74
2023-03-06T15:14:20.144Z,8.73
2023-03-06T15:16:46.666Z,8.72
2023-03-06T15:19:22.170Z,8.75
2023-03-06T15:21:51.882Z,8.75
2023-03-06T15:24:34.892Z,8.76
2023-03-06T15:27:04.641Z,8.75
2023-03-06T15:29:31.748Z,8.74
2023-03-06T15:32:35.871Z,8.74
2023-03-06T15:35:24.159Z,8.74
2023-03-06T15:37:52.186Z,8.74
2023-03-06T15:40:20.498Z,8.76
2023-03-06T15:42:47.217Z,8.75
2023-03-06T15:45:19.925Z,8.74
2023-03-06T15:47:48.253Z,8.76
2023-03-06T15:50:25.186Z,8.77
2023-03-06T15:52:52.340Z,8.76
2023-03-06T15:55:21.714Z,8.75
2023-03-06T15:57:51.731Z,8.74
2023-03-06T16:00:27.750Z,8.75
2023-03-06T16:02:56.394Z,8.75
2023-03-06T16:05:23.928Z,8.72
2023-03-06T16:07:50.848Z,8.70
2023-03-06T16:10:19.965Z,8.68
2023-03-06T16:12:57.023Z,8.65
2023-03-06T16:15:29.179Z,8.65
2023-03-06T16:17:59.930Z,8.62
2023-03-06T16:20:28.758Z,8.59
2023-03-06T16:22:55.936Z,8.57
2023-03-06T16:25:24.451Z,8.57
2023-03-06T16:28:01.052Z,8.55
2023-03-06T16:30:30.794Z,8.55
2023-03-06T16:32:58.226Z,8.55
2023-03-06T16:35:25.475Z,8.55
2023-03-06T16:37:52.022Z,8.54
2023-03-06T16:40:24.529Z,8.55
2023-03-06T16:42:54.075Z,8.54
2023-03-06T16:45:23.388Z,8.54
2023-03-06T16:47:50.368Z,8.55
2023-03-06T16:50:28.762Z,8.54
2023-03-06T16:52:56.613Z,8.55
2023-03-06T16:55:26.267Z,8.55
2023-03-06T16:57:53.498Z,8.53
2023-03-06T17:00:21.455Z,8.52
2023-03-06T17:02:49.178Z,8.50
2023-03-06T17:05:16.390Z,8.50
2023-03-06T17:07:42.898Z,8.49
2023-03-06T17:10:12.907Z,8.45
2023-03-06T17:12:39.500Z,8.43
2023-03-06T17:15:07.061Z,8.38
2023-03-06T17:17:34.029Z,8.38
2023-03-06T17:20:00.807Z,8.35
2023-03-06T17:22:27.836Z,8.33
2023-03-06T17:24:54.535Z,8.28
2023-03-06T17:27:23.276Z,8.24
2023-03-06T17:29:49.988Z,8.20
2023-03-06T17:32:16.524Z,8.16
2023-03-06T17:34:43.139Z,8.13
2023-03-06T17:37:09.664Z,8.05
2023-03-06T17:39:38.879Z,8.00
2023-03-06T17:42:06.546Z,8.00
2023-03-06T17:44:34.369Z,7.94
2023-03-06T17:47:01.120Z,7.88
2023-03-06T17:49:27.780Z,7.75
2023-03-06T17:52:04.416Z,7.71
2023-03-06T17:54:33.052Z,7.62
2023-03-06T17:57:03.346Z,7.53
2023-03-06T17:59:31.224Z,7.47
2023-03-06T18:01:58.919Z,7.33
2023-03-06T18:04:26.158Z,7.26
2023-03-06T18:06:52.897Z,7.21
2023-03-06T18:09:20.088Z,7.15
2023-03-06T18:11:46.676Z,7.12
2023-03-06T18:14:13.212Z,7.03
2023-03-06T18:16:39.880Z,6.96
2023-03-06T18:19:06.453Z,6.91
2023-03-06T18:21:32.961Z,6.85
2023-03-06T18:23:59.593Z,6.79
2023-03-06T18:26:28.312Z,6.75
2023-03-06T18:29:04.490Z,6.70
2023-03-06T18:31:40.130Z,6.68
2023-03-06T18:34:09.877Z,6.63
2023-03-06T18:36:37.539Z,6.55
2023-03-06T18:39:08.619Z,6.50
2023-03-06T18:41:36.211Z,6.43
2023-03-06T18:44:03.172Z,6.38
2023-03-06T18:46:35.741Z,6.34
2023-03-06T18:49:03.005Z,6.28
2023-03-06T18:51:30.289Z,6.25
2023-03-06T18:53:58.213Z,6.27
2023-03-06T18:56:25.201Z,6.22
2023-03-06T18:58:52.779Z,6.18
2023-03-06T19:01:20.047Z,6.13
2023-03-06T19:03:47.147Z,6.08
2023-03-06T19:06:15.629Z,6.08
2023-03-06T19:08:42.427Z,6.04
2023-03-06T19:11:18.292Z,6.02
2023-03-06T19:13:44.969Z,5.95
2023-03-06T19:16:24.144Z,5.95
2023-03-06T19:18:51.378Z,5.88
2023-03-06T19:21:20.526Z,5.85
2023-03-06T19:23:47.790Z,5.84
2023-03-06T19:26:15.699Z,5.76
2023-03-06T19:28:43.185Z,5.74
2023-03-06T19:31:10.684Z,5.66
2023-03-06T19:33:38.026Z,5.59
2023-03-06T19:36:06.786Z,5.54
2023-03-06T19:38:33.794Z,5.55
2023-03-06T19:41:03.429Z,5.48
2023-03-06T19:43:30.420Z,5.47
2023-03-06T19:45:57.349Z,5.44
2023-03-06T19:48:24.040Z,5.39
2023-03-06T19:50:50.544Z,5.37
2023-03-06T19:53:17.394Z,5.34
2023-03-06T19:55:43.920Z,5.33
2023-03-06T19:58:11.209Z,5.27
2023-03-06T20:00:38.346Z,5.27
2023-03-06T20:03:05.020Z,5.25
2023-03-06T20:05:31.618Z,5.18
2023-03-06T20:07:58.244Z,5.13
2023-03-06T20:10:24.764Z,5.10
2023-03-06T20:12:51.281Z,5.05
2023-03-06T20:15:20.367Z,5.00
2023-03-06T20:17:46.982Z,4.95
2023-03-06T20:20:14.329Z,4.91
2023-03-06T20:22:41.066Z,4.88
2023-03-06T20:25:08.043Z,4.86
2023-03-06T20:27:34.646Z,4.89
2023-03-06T20:30:01.500Z,4.85
2023-03-06T20:32:28.043Z,4.85
2023-03-06T20:34:54.619Z,4.83
2023-03-06T20:37:21.139Z,4.78
2023-03-06T20:39:47.883Z,4.76
2023-03-06T20:42:14.636Z,4.81
2023-03-06T20:44:41.356Z,4.79
2023-03-06T20:47:08.956Z,4.77
2023-03-06T20:49:36.664Z,4.78
2023-03-06T20:52:03.668Z,4.74
2023-03-06T20:54:30.182Z,4.69
2023-03-06T20:56:56.822Z,4.67
2023-03-06T20:59:23.901Z,4.68
2023-03-06T21:01:50.518Z,4.60
2023-03-06T21:04:17.324Z,4.60
2023-03-06T21:06:46.764Z,4.55
2023-03-06T21:09:16.056Z,4.54
2023-03-06T21:11:42.884Z,4.57
2023-03-06T21:14:09.663Z,4.56
2023-03-06T21:16:36.323Z,4.51
2023-03-06T21:19:03.452Z,4.46
2023-03-06T21:21:33.133Z,4.47
2023-03-06T21:24:00.428Z,4.45
2023-03-06T21:26:29.790Z,4.46
2023-03-06T21:28:58.956Z,4.42
2023-03-06T21:31:27.053Z,4.36
2023-03-06T21:33:54.139Z,4.33
2023-03-06T21:36:24.327Z,4.37
2023-03-06T21:38:52.407Z,4.41
2023-03-06T21:41:24.794Z,4.37
2023-03-06T21:44:02.197Z,4.36
2023-03-06T21:46:29.801Z,4.32
2023-03-06T21:48:57.459Z,4.37
2023-03-06T21:51:25.384Z,4.36
2023-03-06T21:53:53.191Z,4.36
2023-03-06T21:56:22.112Z,4.35
2023-03-06T21:58:48.611Z,4.38
2023-03-06T22:01:21.783Z,4.40
2023-03-06T22:03:48.447Z,4.43
2023-03-06T22:06:17.615Z,4.42
2023-03-06T22:08:44.877Z,4.44
2023-03-06T22:11:14.815Z,4.44
2023-03-06T22:13:41.764Z,4.43
2023-03-06T22:16:08.702Z,4.41
2023-03-06T22:18:36.147Z,4.43
2023-03-06T22:21:10.189Z,4.46
2023-03-06T22:23:36.966Z,4.44
2023-03-06T22:26:05.095Z,4.44
2023-03-06T22:28:32.446Z,4.44
2023-03-06T22:31:09.750Z,4.48
2023-03-06T22:33:36.525Z,4.47
2023-03-06T22:36:08.579Z,4.46
2023-03-06T22:38:37.544Z,4.47
2023-03-06T22:41:05.279Z,4.45
2023-03-06T22:43:32.715Z,4.45
2023-03-06T22:46:01.757Z,4.44
2023-03-06T22:48:28.539Z,4.44
2023-03-06T22:50:55.148Z,4.45
2023-03-06T22:53:21.691Z,4.45
2023-03-06T22:55:48.177Z,4.46
2023-03-06T22:58:14.774Z,4.47
2023-03-06T23:00:41.313Z,4.46
2023-03-06T23:03:07.778Z,4.45
2023-03-06T23:05:34.281Z,4.44
2023-03-06T23:08:00.871Z,4.42
2023-03-06T23:10:27.433Z,4.41
2023-03-06T23:12:54.013Z,4.44
2023-03-06T23:15:20.861Z,4.41
2023-03-06T23:17:47.449Z,4.39
2023-03-06T23:20:14.636Z,4.36
2023-03-06T23:22:41.227Z,4.38
2023-03-06T23:25:08.202Z,4.38
2023-03-06T23:27:36.096Z,4.34
2023-03-06T23:30:06.078Z,4.33
2023-03-06T23:32:33.668Z,4.34
2023-03-06T23:35:01.086Z,4.34
2023-03-06T23:37:27.673Z,4.34
2023-03-06T23:39:54.226Z,4.35
2023-03-06T23:42:20.721Z,4.32
2023-03-06T23:44:47.287Z,4.33
2023-03-06T23:47:13.854Z,4.31
2023-03-06T23:49:40.573Z,4.32
2023-03-06T23:52:07.127Z,4.33
2023-03-06T23:54:34.348Z,4.28
2023-03-06T23:57:01.079Z,4.28
2023-03-06T23:59:27.625Z,4.28
